Fredrick L. Nolan Jr — WDC7623 — position and weather

sailwx.info

Track history (hours):
 
Tides and Currents Weather Stations Pressure Air Temp Water Temp Dewpoint Dewpoint Depression Visibility Wind Speed Wind Dir Waves Ship Positions

Fredrick L. Nolan Jr

Owner: Boston Harbor Cruises, BOSTON, MA. More information available from US FCC via Universal Licensing System and Coast Guard Vessel Documentation Center.

Last reported at 2018-Jul-19 01:58 UTC. Time now 2018-Jul-23 00:17 UTC.
Position N 42°22' W 071°03'.

Length 25 m.

Type: Passenger vessel. MMSI: 367074170.

Date/timePositionNaut miles runAvg speedWind from/ knotsBaromVisibWave heightAir tempDewpointWater temp
2018-Jul-19 01:58N 42°22' W 071°03'3 5.8
2018-Jul-19 01:28N 42°19' W 071°01'1 2.6
2018-Jul-19 01:00N 42°21' W 071°01'1 2.0
2018-Jul-19 00:30N 42°21' W 071°02'2 4.4
2018-Jul-19 00:00N 42°19' W 071°01'0 0.0
2018-Jul-18 23:29N 42°19' W 071°01'0 0.0
2018-Jul-18 22:59N 42°19' W 071°01'0 0.1
2018-Jul-18 22:30N 42°19' W 071°01'4 1.5
2018-Jul-18 20:02N 42°22' W 071°03'0 0.0
2018-Jul-18 20:01N 42°22' W 071°03'  
Track history (hours):
 
Tides and Currents Weather Stations Pressure Air Temp Water Temp Dewpoint Dewpoint Depression Visibility Wind Speed Wind Dir Waves Ship Positions

Fredrick L. Nolan Jr

Owner: Boston Harbor Cruises, BOSTON, MA. More information available from US FCC via Universal Licensing System and Coast Guard Vessel Documentation Center.

Last reported at 2018-Jul-19 01:58 UTC. Time now 2018-Jul-23 00:17 UTC.
Position N 42°22' W 071°03'.

Length 25 m.

Type: Passenger vessel. MMSI: 367074170.

Date/timePositionNaut miles runAvg speedWind from/ knotsBaromVisibWave heightAir tempDewpointWater temp
2018-Jul-19 01:58N 42°22' W 071°03'3 5.8
2018-Jul-19 01:28N 42°19' W 071°01'1 2.6
2018-Jul-19 01:00N 42°21' W 071°01'1 2.0
2018-Jul-19 00:30N 42°21' W 071°02'2 4.4
2018-Jul-19 00:00N 42°19' W 071°01'0 0.0
2018-Jul-18 23:29N 42°19' W 071°01'0 0.0
2018-Jul-18 22:59N 42°19' W 071°01'0 0.1
2018-Jul-18 22:30N 42°19' W 071°01'4 1.5
2018-Jul-18 20:02N 42°22' W 071°03'0 0.0
2018-Jul-18 20:01N 42°22' W 071°03'  

Dump ship's entire track history